sensor_id;sensor_type;location;lat;lon;timestamp;temperature;humidity
29093;DHT22;16167;48.768;14.984;2023-08-08T00:01:20;11.40;1.00
29093;DHT22;16167;48.768;14.984;2023-08-08T00:03:48;11.40;1.00
29093;DHT22;16167;48.768;14.984;2023-08-08T00:06:16;11.40;1.00
29093;DHT22;16167;48.768;14.984;2023-08-08T00:08:45;11.40;1.00
29093;DHT22;16167;48.768;14.984;2023-08-08T00:11:13;11.40;1.00
29093;DHT22;16167;48.768;14.984;2023-08-08T00:13:41;11.30;1.00
29093;DHT22;16167;48.768;14.984;2023-08-08T00:16:09;11.40;1.00
29093;DHT22;16167;48.768;14.984;2023-08-08T00:18:37;11.30;1.00
29093;DHT22;16167;48.768;14.984;2023-08-08T00:21:05;11.30;1.00
29093;DHT22;16167;48.768;14.984;2023-08-08T00:23:33;11.30;1.00
29093;DHT22;16167;48.768;14.984;2023-08-08T00:26:02;11.30;1.00
29093;DHT22;16167;48.768;14.984;2023-08-08T00:28:30;11.20;1.00
29093;DHT22;16167;48.768;14.984;2023-08-08T00:30:58;11.20;1.00
29093;DHT22;16167;48.768;14.984;2023-08-08T00:33:26;11.20;1.00
29093;DHT22;16167;48.768;14.984;2023-08-08T00:35:54;11.20;1.00
29093;DHT22;16167;48.768;14.984;2023-08-08T00:38:22;11.20;1.00
29093;DHT22;16167;48.768;14.984;2023-08-08T00:40:50;11.10;1.00
29093;DHT22;16167;48.768;14.984;2023-08-08T00:43:19;11.10;1.30
29093;DHT22;16167;48.768;14.984;2023-08-08T00:45:48;11.10;1.00
29093;DHT22;16167;48.768;14.984;2023-08-08T00:48:15;11.10;1.00
29093;DHT22;16167;48.768;14.984;2023-08-08T00:50:44;11.10;1.00
29093;DHT22;16167;48.768;14.984;2023-08-08T00:53:12;11.10;2.00
29093;DHT22;16167;48.768;14.984;2023-08-08T00:55:40;11.10;2.50
29093;DHT22;16167;48.768;14.984;2023-08-08T00:58:08;11.00;7.20
29093;DHT22;16167;48.768;14.984;2023-08-08T01:00:37;11.00;2.10
29093;DHT22;16167;48.768;14.984;2023-08-08T01:03:12;11.00;2.80
29093;DHT22;16167;48.768;14.984;2023-08-08T01:05:43;11.00;6.30
29093;DHT22;16167;48.768;14.984;2023-08-08T01:08:11;10.90;6.90
29093;DHT22;16167;48.768;14.984;2023-08-08T01:10:41;10.90;7.30
29093;DHT22;16167;48.768;14.984;2023-08-08T01:13:10;10.90;8.70
29093;DHT22;16167;48.768;14.984;2023-08-08T01:15:41;10.80;7.60
29093;DHT22;16167;48.768;14.984;2023-08-08T01:18:09;10.70;13.10
29093;DHT22;16167;48.768;14.984;2023-08-08T01:20:37;10.70;12.70
29093;DHT22;16167;48.768;14.984;2023-08-08T01:23:09;10.70;14.20
29093;DHT22;16167;48.768;14.984;2023-08-08T01:25:39;10.70;15.50
29093;DHT22;16167;48.768;14.984;2023-08-08T01:28:08;10.70;18.40
29093;DHT22;16167;48.768;14.984;2023-08-08T01:30:36;10.70;15.00
29093;DHT22;16167;48.768;14.984;2023-08-08T01:33:04;10.70;18.30
29093;DHT22;16167;48.768;14.984;2023-08-08T01:35:34;10.70;15.30
29093;DHT22;16167;48.768;14.984;2023-08-08T01:38:05;10.80;16.30
29093;DHT22;16167;48.768;14.984;2023-08-08T01:40:36;10.80;14.50
29093;DHT22;16167;48.768;14.984;2023-08-08T01:43:06;10.90;14.70
29093;DHT22;16167;48.768;14.984;2023-08-08T01:45:35;10.90;16.00
29093;DHT22;16167;48.768;14.984;2023-08-08T01:48:06;10.90;13.60
29093;DHT22;16167;48.768;14.984;2023-08-08T01:50:34;10.90;15.00
29093;DHT22;16167;48.768;14.984;2023-08-08T01:53:02;11.00;13.10
29093;DHT22;16167;48.768;14.984;2023-08-08T01:55:30;11.00;14.20
29093;DHT22;16167;48.768;14.984;2023-08-08T01:57:58;11.00;11.90
29093;DHT22;16167;48.768;14.984;2023-08-08T02:00:27;11.10;11.50
29093;DHT22;16167;48.768;14.984;2023-08-08T02:02:56;11.10;9.70
29093;DHT22;16167;48.768;14.984;2023-08-08T02:05:25;11.10;10.40
29093;DHT22;16167;48.768;14.984;2023-08-08T02:07:53;11.20;7.80
29093;DHT22;16167;48.768;14.984;2023-08-08T02:10:21;11.20;8.40
29093;DHT22;16167;48.768;14.984;2023-08-08T02:12:49;11.20;8.20
29093;DHT22;16167;48.768;14.984;2023-08-08T02:15:17;11.20;6.90
29093;DHT22;16167;48.768;14.984;2023-08-08T02:17:46;11.30;4.60
29093;DHT22;16167;48.768;14.984;2023-08-08T02:20:14;11.30;1.00
29093;DHT22;16167;48.768;14.984;2023-08-08T02:22:42;11.30;1.00
29093;DHT22;16167;48.768;14.984;2023-08-08T02:25:10;11.30;1.00
29093;DHT22;16167;48.768;14.984;2023-08-08T02:27:38;11.30;1.00
29093;DHT22;16167;48.768;14.984;2023-08-08T02:30:06;11.20;1.00
29093;DHT22;16167;48.768;14.984;2023-08-08T02:32:34;11.20;1.00
29093;DHT22;16167;48.768;14.984;2023-08-08T02:35:04;11.20;1.00
29093;DHT22;16167;48.768;14.984;2023-08-08T02:37:32;11.10;3.60
29093;DHT22;16167;48.768;14.984;2023-08-08T02:40:00;11.10;5.70
29093;DHT22;16167;48.768;14.984;2023-08-08T02:42:29;11.10;7.90
29093;DHT22;16167;48.768;14.984;2023-08-08T02:44:57;11.10;6.60
29093;DHT22;16167;48.768;14.984;2023-08-08T02:47:25;11.10;6.40
29093;DHT22;16167;48.768;14.984;2023-08-08T02:49:54;11.10;7.30
29093;DHT22;16167;48.768;14.984;2023-08-08T02:52:23;11.00;5.70
29093;DHT22;16167;48.768;14.984;2023-08-08T02:54:51;11.00;8.90
29093;DHT22;16167;48.768;14.984;2023-08-08T02:57:19;11.00;9.00
29093;DHT22;16167;48.768;14.984;2023-08-08T02:59:47;10.90;13.00
29093;DHT22;16167;48.768;14.984;2023-08-08T03:02:15;10.90;11.70
29093;DHT22;16167;48.768;14.984;2023-08-08T03:04:43;10.90;12.10
29093;DHT22;16167;48.768;14.984;2023-08-08T03:07:11;10.90;13.80
29093;DHT22;16167;48.768;14.984;2023-08-08T03:09:40;10.90;14.50
29093;DHT22;16167;48.768;14.984;2023-08-08T03:12:08;10.90;15.60
29093;DHT22;16167;48.768;14.984;2023-08-08T03:14:38;10.80;16.40
29093;DHT22;16167;48.768;14.984;2023-08-08T03:17:06;10.90;19.30
29093;DHT22;16167;48.768;14.984;2023-08-08T03:19:34;10.80;17.30
29093;DHT22;16167;48.768;14.984;2023-08-08T03:22:02;10.80;19.70
29093;DHT22;16167;48.768;14.984;2023-08-08T03:24:30;10.90;19.70
29093;DHT22;16167;48.768;14.984;2023-08-08T03:26:59;10.90;17.70
29093;DHT22;16167;48.768;14.984;2023-08-08T03:29:27;10.90;18.40
29093;DHT22;16167;48.768;14.984;2023-08-08T03:31:55;10.90;17.50
29093;DHT22;16167;48.768;14.984;2023-08-08T03:34:23;10.80;18.20
29093;DHT22;16167;48.768;14.984;2023-08-08T03:36:51;10.80;20.50
29093;DHT22;16167;48.768;14.984;2023-08-08T03:39:19;10.80;22.90
29093;DHT22;16167;48.768;14.984;2023-08-08T03:41:47;10.70;22.80
29093;DHT22;16167;48.768;14.984;2023-08-08T03:44:17;10.70;23.20
29093;DHT22;16167;48.768;14.984;2023-08-08T03:46:45;10.60;23.60
29093;DHT22;16167;48.768;14.984;2023-08-08T03:49:13;10.60;26.20
29093;DHT22;16167;48.768;14.984;2023-08-08T03:51:41;10.50;23.30
29093;DHT22;16167;48.768;14.984;2023-08-08T03:54:09;10.50;23.60
29093;DHT22;16167;48.768;14.984;2023-08-08T03:56:37;10.40;26.10
29093;DHT22;16167;48.768;14.984;2023-08-08T03:59:05;10.40;27.40
29093;DHT22;16167;48.768;14.984;2023-08-08T04:01:35;10.40;26.90
29093;DHT22;16167;48.768;14.984;2023-08-08T04:04:04;10.30;27.80
29093;DHT22;16167;48.768;14.984;2023-08-08T04:06:33;10.30;28.40
29093;DHT22;16167;48.768;14.984;2023-08-08T04:09:01;10.30;32.70
29093;DHT22;16167;48.768;14.984;2023-08-08T04:11:29;10.30;35.00
29093;DHT22;16167;48.768;14.984;2023-08-08T04:13:57;10.30;30.90
29093;DHT22;16167;48.768;14.984;2023-08-08T04:16:25;10.30;33.50
29093;DHT22;16167;48.768;14.984;2023-08-08T04:18:54;10.30;34.80
29093;DHT22;16167;48.768;14.984;2023-08-08T04:21:22;10.40;31.90
29093;DHT22;16167;48.768;14.984;2023-08-08T04:23:51;10.40;30.50
29093;DHT22;16167;48.768;14.984;2023-08-08T04:26:19;10.40;32.10
29093;DHT22;16167;48.768;14.984;2023-08-08T04:28:47;10.30;38.40
29093;DHT22;16167;48.768;14.984;2023-08-08T04:31:15;10.30;36.20
29093;DHT22;16167;48.768;14.984;2023-08-08T04:33:43;10.40;38.00
29093;DHT22;16167;48.768;14.984;2023-08-08T04:36:12;10.40;44.00
29093;DHT22;16167;48.768;14.984;2023-08-08T04:38:40;10.40;39.90
29093;DHT22;16167;48.768;14.984;2023-08-08T04:41:08;10.50;40.10
29093;DHT22;16167;48.768;14.984;2023-08-08T04:43:36;10.50;34.30
29093;DHT22;16167;48.768;14.984;2023-08-08T04:46:04;10.50;31.20
29093;DHT22;16167;48.768;14.984;2023-08-08T04:48:32;10.60;30.90
29093;DHT22;16167;48.768;14.984;2023-08-08T04:51:00;10.70;31.60
29093;DHT22;16167;48.768;14.984;2023-08-08T04:53:30;10.70;30.70
29093;DHT22;16167;48.768;14.984;2023-08-08T04:55:58;10.70;33.60
29093;DHT22;16167;48.768;14.984;2023-08-08T04:58:26;10.80;37.60
29093;DHT22;16167;48.768;14.984;2023-08-08T05:00:54;10.80;32.70
29093;DHT22;16167;48.768;14.984;2023-08-08T05:03:22;10.90;36.80
29093;DHT22;16167;48.768;14.984;2023-08-08T05:05:50;10.90;36.40
29093;DHT22;16167;48.768;14.984;2023-08-08T05:08:18;10.90;38.80
29093;DHT22;16167;48.768;14.984;2023-08-08T05:10:47;11.00;35.80
29093;DHT22;16167;48.768;14.984;2023-08-08T05:13:15;11.00;36.70
29093;DHT22;16167;48.768;14.984;2023-08-08T05:15:43;11.00;37.10
29093;DHT22;16167;48.768;14.984;2023-08-08T05:18:11;11.10;37.80
29093;DHT22;16167;48.768;14.984;2023-08-08T05:20:39;11.10;43.20
29093;DHT22;16167;48.768;14.984;2023-08-08T05:23:07;11.20;49.60
29093;DHT22;16167;48.768;14.984;2023-08-08T05:25:35;11.20;45.60
29093;DHT22;16167;48.768;14.984;2023-08-08T05:28:05;11.30;42.20
29093;DHT22;16167;48.768;14.984;2023-08-08T05:30:33;11.30;53.60
29093;DHT22;16167;48.768;14.984;2023-08-08T05:33:01;11.40;45.80
29093;DHT22;16167;48.768;14.984;2023-08-08T05:35:30;11.50;34.40
29093;DHT22;16167;48.768;14.984;2023-08-08T05:37:58;11.60;29.10
29093;DHT22;16167;48.768;14.984;2023-08-08T05:40:26;11.80;30.90
29093;DHT22;16167;48.768;14.984;2023-08-08T05:42:54;11.90;20.40
29093;DHT22;16167;48.768;14.984;2023-08-08T05:45:23;12.10;17.80
29093;DHT22;16167;48.768;14.984;2023-08-08T05:47:51;12.30;13.60
29093;DHT22;16167;48.768;14.984;2023-08-08T05:50:19;12.40;3.50
29093;DHT22;16167;48.768;14.984;2023-08-08T05:52:47;12.60;1.00
29093;DHT22;16167;48.768;14.984;2023-08-08T05:55:15;12.80;1.00
29093;DHT22;16167;48.768;14.984;2023-08-08T05:57:43;12.90;1.00
29093;DHT22;16167;48.768;14.984;2023-08-08T06:00:11;13.00;1.00
29093;DHT22;16167;48.768;14.984;2023-08-08T06:02:41;13.10;1.00
29093;DHT22;16167;48.768;14.984;2023-08-08T06:05:10;13.20;1.00
29093;DHT22;16167;48.768;14.984;2023-08-08T06:07:38;13.30;1.00
29093;DHT22;16167;48.768;14.984;2023-08-08T06:10:06;13.40;1.00
29093;DHT22;16167;48.768;14.984;2023-08-08T06:12:35;13.50;1.00
29093;DHT22;16167;48.768;14.984;2023-08-08T06:15:03;13.60;1.00
29093;DHT22;16167;48.768;14.984;2023-08-08T06:17:31;13.60;1.00
29093;DHT22;16167;48.768;14.984;2023-08-08T06:20:01;13.70;1.00
29093;DHT22;16167;48.768;14.984;2023-08-08T06:22:29;13.70;1.00
29093;DHT22;16167;48.768;14.984;2023-08-08T06:24:57;13.80;1.00
29093;DHT22;16167;48.768;14.984;2023-08-08T06:27:25;13.90;1.00
29093;DHT22;16167;48.768;14.984;2023-08-08T06:29:53;14.00;1.00
29093;DHT22;16167;48.768;14.984;2023-08-08T06:32:22;14.20;1.00
29093;DHT22;16167;48.768;14.984;2023-08-08T06:34:50;14.20;1.00
29093;DHT22;16167;48.768;14.984;2023-08-08T06:37:19;14.20;1.00
29093;DHT22;16167;48.768;14.984;2023-08-08T06:39:47;14.20;1.00
29093;DHT22;16167;48.768;14.984;2023-08-08T06:42:15;14.20;1.00
29093;DHT22;16167;48.768;14.984;2023-08-08T06:44:43;14.20;1.00
29093;DHT22;16167;48.768;14.984;2023-08-08T06:47:11;14.30;1.00
29093;DHT22;16167;48.768;14.984;2023-08-08T06:49:39;14.30;1.00
29093;DHT22;16167;48.768;14.984;2023-08-08T06:52:07;14.40;1.00
29093;DHT22;16167;48.768;14.984;2023-08-08T06:54:37;14.40;1.00
29093;DHT22;16167;48.768;14.984;2023-08-08T06:57:05;14.50;1.00
29093;DHT22;16167;48.768;14.984;2023-08-08T06:59:33;14.60;1.00
29093;DHT22;16167;48.768;14.984;2023-08-08T07:02:01;14.80;1.00
29093;DHT22;16167;48.768;14.984;2023-08-08T07:04:30;15.10;1.00
29093;DHT22;16167;48.768;14.984;2023-08-08T07:06:58;15.30;1.00
29093;DHT22;16167;48.768;14.984;2023-08-08T07:09:26;15.70;1.00
29093;DHT22;16167;48.768;14.984;2023-08-08T07:11:56;16.00;1.00
29093;DHT22;16167;48.768;14.984;2023-08-08T07:14:25;16.30;1.00
29093;DHT22;16167;48.768;14.984;2023-08-08T07:16:53;16.50;1.00
29093;DHT22;16167;48.768;14.984;2023-08-08T07:19:21;16.90;1.00
29093;DHT22;16167;48.768;14.984;2023-08-08T07:21:49;17.10;1.00
29093;DHT22;16167;48.768;14.984;2023-08-08T07:24:17;17.10;1.00
29093;DHT22;16167;48.768;14.984;2023-08-08T07:26:46;17.30;1.00
29093;DHT22;16167;48.768;14.984;2023-08-08T07:29:16;17.40;1.00
29093;DHT22;16167;48.768;14.984;2023-08-08T07:31:44;17.40;1.00
29093;DHT22;16167;48.768;14.984;2023-08-08T07:34:12;17.80;1.00
29093;DHT22;16167;48.768;14.984;2023-08-08T07:36:40;18.00;1.00
29093;DHT22;16167;48.768;14.984;2023-08-08T07:39:08;17.90;1.00
29093;DHT22;16167;48.768;14.984;2023-08-08T07:41:36;18.00;1.00
29093;DHT22;16167;48.768;14.984;2023-08-08T07:44:04;18.00;1.00
29093;DHT22;16167;48.768;14.984;2023-08-08T07:46:34;18.10;1.00
29093;DHT22;16167;48.768;14.984;2023-08-08T07:49:02;18.00;1.00
29093;DHT22;16167;48.768;14.984;2023-08-08T07:51:31;18.00;1.00
29093;DHT22;16167;48.768;14.984;2023-08-08T07:53:59;17.90;1.00
29093;DHT22;16167;48.768;14.984;2023-08-08T07:56:28;17.90;1.00
29093;DHT22;16167;48.768;14.984;2023-08-08T07:58:56;17.90;1.00
29093;DHT22;16167;48.768;14.984;2023-08-08T08:01:24;17.90;1.00
29093;DHT22;16167;48.768;14.984;2023-08-08T08:03:55;18.00;1.00
29093;DHT22;16167;48.768;14.984;2023-08-08T08:06:23;18.10;1.00
29093;DHT22;16167;48.768;14.984;2023-08-08T08:08:51;18.10;1.00
29093;DHT22;16167;48.768;14.984;2023-08-08T08:11:19;18.10;1.00
29093;DHT22;16167;48.768;14.984;2023-08-08T08:13:47;18.00;1.00
29093;DHT22;16167;48.768;14.984;2023-08-08T08:16:15;17.90;1.00
29093;DHT22;16167;48.768;14.984;2023-08-08T08:18:43;17.80;1.00
29093;DHT22;16167;48.768;14.984;2023-08-08T08:21:12;17.70;1.00
29093;DHT22;16167;48.768;14.984;2023-08-08T08:23:41;17.60;1.00
29093;DHT22;16167;48.768;14.984;2023-08-08T08:26:08;17.60;1.00
29093;DHT22;16167;48.768;14.984;2023-08-08T08:28:36;17.70;1.00
29093;DHT22;16167;48.768;14.984;2023-08-08T08:31:06;17.80;1.00
29093;DHT22;16167;48.768;14.984;2023-08-08T08:33:35;17.90;1.00
29093;DHT22;16167;48.768;14.984;2023-08-08T08:36:03;18.00;1.00
29093;DHT22;16167;48.768;14.984;2023-08-08T08:38:33;18.20;1.00
29093;DHT22;16167;48.768;14.984;2023-08-08T08:41:01;18.30;1.00
29093;DHT22;16167;48.768;14.984;2023-08-08T08:43:31;18.50;1.00
29093;DHT22;16167;48.768;14.984;2023-08-08T08:46:00;18.80;1.00
29093;DHT22;16167;48.768;14.984;2023-08-08T08:48:28;19.20;1.00
29093;DHT22;16167;48.768;14.984;2023-08-08T08:50:56;19.80;1.00
29093;DHT22;16167;48.768;14.984;2023-08-08T08:53:25;20.20;1.00
29093;DHT22;16167;48.768;14.984;2023-08-08T08:55:55;20.10;1.00
29093;DHT22;16167;48.768;14.984;2023-08-08T08:58:24;20.20;1.00
29093;DHT22;16167;48.768;14.984;2023-08-08T09:00:52;20.50;1.00
29093;DHT22;16167;48.768;14.984;2023-08-08T09:03:20;20.80;1.00
29093;DHT22;16167;48.768;14.984;2023-08-08T09:05:48;21.10;1.00
29093;DHT22;16167;48.768;14.984;2023-08-08T09:08:17;21.20;1.00
29093;DHT22;16167;48.768;14.984;2023-08-08T09:10:45;21.40;1.00
29093;DHT22;16167;48.768;14.984;2023-08-08T09:13:14;21.60;1.00
29093;DHT22;16167;48.768;14.984;2023-08-08T09:15:42;21.80;1.00
29093;DHT22;16167;48.768;14.984;2023-08-08T09:18:10;21.90;1.00
29093;DHT22;16167;48.768;14.984;2023-08-08T09:20:38;22.10;1.00
29093;DHT22;16167;48.768;14.984;2023-08-08T09:23:06;22.00;1.00
29093;DHT22;16167;48.768;14.984;2023-08-08T09:25:36;22.00;1.00
29093;DHT22;16167;48.768;14.984;2023-08-08T09:28:04;22.40;1.00
29093;DHT22;16167;48.768;14.984;2023-08-08T09:30:34;22.70;1.00
29093;DHT22;16167;48.768;14.984;2023-08-08T09:33:02;22.80;1.00
29093;DHT22;16167;48.768;14.984;2023-08-08T09:35:30;22.60;1.00
29093;DHT22;16167;48.768;14.984;2023-08-08T09:37:59;22.80;1.00
29093;DHT22;16167;48.768;14.984;2023-08-08T09:40:29;23.20;1.00
29093;DHT22;16167;48.768;14.984;2023-08-08T09:42:57;23.60;1.00
29093;DHT22;16167;48.768;14.984;2023-08-08T09:45:26;23.40;1.00
29093;DHT22;16167;48.768;14.984;2023-08-08T09:47:55;23.40;1.00
29093;DHT22;16167;48.768;14.984;2023-08-08T09:50:23;23.00;1.00
29093;DHT22;16167;48.768;14.984;2023-08-08T09:52:52;22.70;1.00
29093;DHT22;16167;48.768;14.984;2023-08-08T09:55:20;22.20;1.00
29093;DHT22;16167;48.768;14.984;2023-08-08T09:57:49;22.00;1.00
29093;DHT22;16167;48.768;14.984;2023-08-08T10:00:17;22.10;1.00
29093;DHT22;16167;48.768;14.984;2023-08-08T10:02:47;22.60;1.00
29093;DHT22;16167;48.768;14.984;2023-08-08T10:05:17;23.10;1.00
29093;DHT22;16167;48.768;14.984;2023-08-08T10:07:45;23.00;1.00
29093;DHT22;16167;48.768;14.984;2023-08-08T10:10:13;23.30;1.00
29093;DHT22;16167;48.768;14.984;2023-08-08T10:12:41;23.40;1.00
29093;DHT22;16167;48.768;14.984;2023-08-08T10:15:10;23.80;1.00
29093;DHT22;16167;48.768;14.984;2023-08-08T10:17:38;24.10;1.00
29093;DHT22;16167;48.768;14.984;2023-08-08T10:20:08;24.00;1.00
29093;DHT22;16167;48.768;14.984;2023-08-08T10:22:42;23.90;1.00
29093;DHT22;16167;48.768;14.984;2023-08-08T10:25:17;24.30;1.00
29093;DHT22;16167;48.768;14.984;2023-08-08T10:27:45;24.40;1.00
29093;DHT22;16167;48.768;14.984;2023-08-08T10:30:13;24.90;1.00
29093;DHT22;16167;48.768;14.984;2023-08-08T10:32:42;25.00;1.00
29093;DHT22;16167;48.768;14.984;2023-08-08T10:35:11;25.00;1.00
29093;DHT22;16167;48.768;14.984;2023-08-08T10:37:39;25.00;1.00
29093;DHT22;16167;48.768;14.984;2023-08-08T10:40:09;25.10;1.00
29093;DHT22;16167;48.768;14.984;2023-08-08T10:42:41;25.20;1.00
29093;DHT22;16167;48.768;14.984;2023-08-08T10:45:10;25.20;1.00
29093;DHT22;16167;48.768;14.984;2023-08-08T10:47:39;25.20;1.00
29093;DHT22;16167;48.768;14.984;2023-08-08T10:50:07;25.20;1.00
29093;DHT22;16167;48.768;14.984;2023-08-08T10:52:38;24.90;1.00
29093;DHT22;16167;48.768;14.984;2023-08-08T10:55:06;24.40;1.00
29093;DHT22;16167;48.768;14.984;2023-08-08T10:57:52;23.90;1.00
29093;DHT22;16167;48.768;14.984;2023-08-08T11:00:23;23.60;1.00
29093;DHT22;16167;48.768;14.984;2023-08-08T11:02:51;24.20;1.00
29093;DHT22;16167;48.768;14.984;2023-08-08T11:05:21;24.80;1.00
29093;DHT22;16167;48.768;14.984;2023-08-08T11:07:49;24.40;1.00
29093;DHT22;16167;48.768;14.984;2023-08-08T11:10:18;24.20;1.00
29093;DHT22;16167;48.768;14.984;2023-08-08T11:12:54;24.40;1.00
29093;DHT22;16167;48.768;14.984;2023-08-08T11:15:22;24.60;1.00
29093;DHT22;16167;48.768;14.984;2023-08-08T11:17:50;25.30;1.00
29093;DHT22;16167;48.768;14.984;2023-08-08T11:20:19;25.50;1.00
29093;DHT22;16167;48.768;14.984;2023-08-08T11:22:50;25.90;1.00
29093;DHT22;16167;48.768;14.984;2023-08-08T11:25:19;26.20;1.00
29093;DHT22;16167;48.768;14.984;2023-08-08T11:27:50;26.50;1.00
29093;DHT22;16167;48.768;14.984;2023-08-08T11:30:20;26.50;1.00
29093;DHT22;16167;48.768;14.984;2023-08-08T11:32:49;26.70;1.00
29093;DHT22;16167;48.768;14.984;2023-08-08T11:35:21;26.90;1.00
29093;DHT22;16167;48.768;14.984;2023-08-08T11:37:49;26.90;1.00
29093;DHT22;16167;48.768;14.984;2023-08-08T11:40:18;27.10;1.00
29093;DHT22;16167;48.768;14.984;2023-08-08T11:42:46;27.10;1.00
29093;DHT22;16167;48.768;14.984;2023-08-08T11:45:17;27.10;1.00
29093;DHT22;16167;48.768;14.984;2023-08-08T11:47:49;27.20;1.00
29093;DHT22;16167;48.768;14.984;2023-08-08T11:50:18;26.80;1.00
29093;DHT22;16167;48.768;14.984;2023-08-08T11:52:47;26.20;1.00
29093;DHT22;16167;48.768;14.984;2023-08-08T11:55:15;25.50;1.00
29093;DHT22;16167;48.768;14.984;2023-08-08T11:57:43;25.10;1.00
29093;DHT22;16167;48.768;14.984;2023-08-08T12:00:12;24.70;1.00
29093;DHT22;16167;48.768;14.984;2023-08-08T12:02:41;24.40;1.00
29093;DHT22;16167;48.768;14.984;2023-08-08T12:05:11;24.30;1.00
29093;DHT22;16167;48.768;14.984;2023-08-08T12:07:40;24.10;1.00
29093;DHT22;16167;48.768;14.984;2023-08-08T12:10:13;23.80;1.00
29093;DHT22;16167;48.768;14.984;2023-08-08T12:12:43;23.70;1.00
29093;DHT22;16167;48.768;14.984;2023-08-08T12:15:11;23.50;1.00
29093;DHT22;16167;48.768;14.984;2023-08-08T12:17:46;23.20;1.00
29093;DHT22;16167;48.768;14.984;2023-08-08T12:20:16;22.90;1.00
29093;DHT22;16167;48.768;14.984;2023-08-08T12:22:44;22.70;1.00
29093;DHT22;16167;48.768;14.984;2023-08-08T12:25:11;22.90;1.00
29093;DHT22;16167;48.768;14.984;2023-08-08T12:27:39;23.10;1.00
29093;DHT22;16167;48.768;14.984;2023-08-08T12:30:08;23.50;1.00
29093;DHT22;16167;48.768;14.984;2023-08-08T12:32:36;23.90;1.00
29093;DHT22;16167;48.768;14.984;2023-08-08T12:35:04;23.90;1.00
29093;DHT22;16167;48.768;14.984;2023-08-08T12:37:34;23.80;1.00
29093;DHT22;16167;48.768;14.984;2023-08-08T12:40:03;23.70;1.00
29093;DHT22;16167;48.768;14.984;2023-08-08T12:42:34;23.40;1.00
29093;DHT22;16167;48.768;14.984;2023-08-08T12:45:02;23.60;1.00
29093;DHT22;16167;48.768;14.984;2023-08-08T12:47:30;24.10;1.00
29093;DHT22;16167;48.768;14.984;2023-08-08T12:49:58;24.50;1.00
29093;DHT22;16167;48.768;14.984;2023-08-08T12:52:26;24.80;1.00
29093;DHT22;16167;48.768;14.984;2023-08-08T12:54:56;24.70;1.00
29093;DHT22;16167;48.768;14.984;2023-08-08T12:57:24;24.90;1.00
29093;DHT22;16167;48.768;14.984;2023-08-08T12:59:52;25.00;1.00
29093;DHT22;16167;48.768;14.984;2023-08-08T13:02:20;24.90;1.00
29093;DHT22;16167;48.768;14.984;2023-08-08T13:04:48;24.60;1.00
29093;DHT22;16167;48.768;14.984;2023-08-08T13:07:16;24.30;1.00
29093;DHT22;16167;48.768;14.984;2023-08-08T13:09:44;24.00;1.00
29093;DHT22;16167;48.768;14.984;2023-08-08T13:12:14;23.80;1.00
29093;DHT22;16167;48.768;14.984;2023-08-08T13:14:42;23.80;1.00
29093;DHT22;16167;48.768;14.984;2023-08-08T13:17:10;23.80;1.00
29093;DHT22;16167;48.768;14.984;2023-08-08T13:19:38;23.90;1.00
29093;DHT22;16167;48.768;14.984;2023-08-08T13:22:06;23.90;1.00
29093;DHT22;16167;48.768;14.984;2023-08-08T13:24:34;23.90;1.00
29093;DHT22;16167;48.768;14.984;2023-08-08T13:27:02;24.10;1.00
29093;DHT22;16167;48.768;14.984;2023-08-08T13:29:31;24.00;1.00
29093;DHT22;16167;48.768;14.984;2023-08-08T13:31:59;24.10;1.00
29093;DHT22;16167;48.768;14.984;2023-08-08T13:34:27;24.10;1.00
29093;DHT22;16167;48.768;14.984;2023-08-08T13:36:55;24.30;1.00
29093;DHT22;16167;48.768;14.984;2023-08-08T13:39:23;24.30;1.00
29093;DHT22;16167;48.768;14.984;2023-08-08T13:41:51;24.40;1.00
29093;DHT22;16167;48.768;14.984;2023-08-08T13:44:19;24.50;1.00
29093;DHT22;16167;48.768;14.984;2023-08-08T13:46:49;24.40;1.00
29093;DHT22;16167;48.768;14.984;2023-08-08T13:49:18;24.30;1.00
29093;DHT22;16167;48.768;14.984;2023-08-08T13:51:46;24.30;1.00
29093;DHT22;16167;48.768;14.984;2023-08-08T13:54:16;24.30;1.00
29093;DHT22;16167;48.768;14.984;2023-08-08T13:56:44;24.40;1.00
29093;DHT22;16167;48.768;14.984;2023-08-08T13:59:12;24.30;1.00
29093;DHT22;16167;48.768;14.984;2023-08-08T14:01:40;24.30;1.00
29093;DHT22;16167;48.768;14.984;2023-08-08T14:04:10;24.50;1.00
29093;DHT22;16167;48.768;14.984;2023-08-08T14:06:38;24.60;1.00
29093;DHT22;16167;48.768;14.984;2023-08-08T14:09:06;24.80;1.00
29093;DHT22;16167;48.768;14.984;2023-08-08T14:11:36;24.70;1.00
29093;DHT22;16167;48.768;14.984;2023-08-08T14:14:04;24.70;1.00
29093;DHT22;16167;48.768;14.984;2023-08-08T14:16:32;24.60;1.00
29093;DHT22;16167;48.768;14.984;2023-08-08T14:19:00;24.60;1.00
29093;DHT22;16167;48.768;14.984;2023-08-08T14:21:30;24.40;1.00
29093;DHT22;16167;48.768;14.984;2023-08-08T14:23:58;24.10;1.00
29093;DHT22;16167;48.768;14.984;2023-08-08T14:26:26;24.10;1.00
29093;DHT22;16167;48.768;14.984;2023-08-08T14:28:54;23.90;1.00
29093;DHT22;16167;48.768;14.984;2023-08-08T14:31:21;23.90;1.00
29093;DHT22;16167;48.768;14.984;2023-08-08T14:33:50;23.80;1.00
29093;DHT22;16167;48.768;14.984;2023-08-08T14:36:18;23.70;1.00
29093;DHT22;16167;48.768;14.984;2023-08-08T14:38:47;23.70;1.00
29093;DHT22;16167;48.768;14.984;2023-08-08T14:41:15;23.70;1.00
29093;DHT22;16167;48.768;14.984;2023-08-08T14:43:43;23.70;1.00
29093;DHT22;16167;48.768;14.984;2023-08-08T14:46:11;23.80;1.00
29093;DHT22;16167;48.768;14.984;2023-08-08T14:48:39;23.70;1.00
29093;DHT22;16167;48.768;14.984;2023-08-08T14:51:07;23.80;1.00
29093;DHT22;16167;48.768;14.984;2023-08-08T14:53:35;23.70;1.00
29093;DHT22;16167;48.768;14.984;2023-08-08T14:56:04;23.60;1.00
29093;DHT22;16167;48.768;14.984;2023-08-08T14:58:32;23.30;1.00
29093;DHT22;16167;48.768;14.984;2023-08-08T15:01:01;23.20;1.00
29093;DHT22;16167;48.768;14.984;2023-08-08T15:03:29;23.20;1.00
29093;DHT22;16167;48.768;14.984;2023-08-08T15:05:58;23.00;1.00
29093;DHT22;16167;48.768;14.984;2023-08-08T15:08:26;23.00;1.00
29093;DHT22;16167;48.768;14.984;2023-08-08T15:10:54;23.00;1.00
29093;DHT22;16167;48.768;14.984;2023-08-08T15:13:24;23.00;1.00
29093;DHT22;16167;48.768;14.984;2023-08-08T15:15:52;23.00;1.00
29093;DHT22;16167;48.768;14.984;2023-08-08T15:18:20;23.00;1.00
29093;DHT22;16167;48.768;14.984;2023-08-08T15:20:48;23.00;1.00
29093;DHT22;16167;48.768;14.984;2023-08-08T15:23:16;23.00;1.00
29093;DHT22;16167;48.768;14.984;2023-08-08T15:25:44;22.90;1.00
29093;DHT22;16167;48.768;14.984;2023-08-08T15:28:12;22.90;1.00
29093;DHT22;16167;48.768;14.984;2023-08-08T15:30:42;22.90;1.00
29093;DHT22;16167;48.768;14.984;2023-08-08T15:33:10;22.90;1.00
29093;DHT22;16167;48.768;14.984;2023-08-08T15:35:38;22.90;1.00